Time;durP1;ratioP1;P1;durP2;ratioP2;P2;SDS_P1;SDS_P2;PMS_P1;PMS_P2;Temp;Humidity;BMP_temperature;BMP_pressure;BME280_temperature;BME280_humidity;BME280_pressure;Samples;Min_cycle;Max_cycle;Signal;HPM_P1;HPM_P2
2021/03/17 00:00:30;;;;;;;23.23;12.87;;;7.40;99.90;;;;;;5036810;28;20452;-80
2021/03/17 00:02:56;;;;;;;17.33;12.60;;;7.40;99.90;;;;;;5036548;28;20251;-80
2021/03/17 00:05:28;;;;;;;21.80;13.83;;;7.30;99.90;;;;;;5038212;28;20740;-81
2021/03/17 00:07:53;;;;;;;22.53;12.73;;;7.30;99.90;;;;;;5035279;28;20442;-81
2021/03/17 00:10:20;;;;;;;22.43;13.77;;;7.30;99.90;;;;;;5037035;28;20598;-81
2021/03/17 00:12:49;;;;;;;21.57;13.10;;;7.40;99.90;;;;;;5032745;28;20205;-81
2021/03/17 00:15:18;;;;;;;18.40;11.90;;;7.40;99.90;;;;;;5033917;28;20402;-81
2021/03/17 00:17:43;;;;;;;15.90;11.20;;;7.40;99.90;;;;;;5033106;28;20453;-81
2021/03/17 00:20:10;;;;;;;19.77;12.00;;;7.40;99.90;;;;;;5048468;28;20488;-81
2021/03/17 00:22:35;;;;;;;15.57;11.27;;;7.40;99.90;;;;;;5033693;28;20187;-81
2021/03/17 00:25:01;;;;;;;20.40;11.00;;;7.40;99.90;;;;;;5025035;28;20419;-81
2021/03/17 00:27:26;;;;;;;18.63;11.50;;;7.30;99.90;;;;;;5048555;28;20213;-81
2021/03/17 00:29:52;;;;;;;17.80;10.93;;;7.30;99.90;;;;;;5044827;28;20181;-81
2021/03/17 00:32:18;;;;;;;16.00;10.13;;;7.30;99.90;;;;;;5039761;28;20199;-81
2021/03/17 00:34:43;;;;;;;18.20;10.57;;;7.30;99.90;;;;;;5033634;28;20175;-81
2021/03/17 00:37:09;;;;;;;13.73;10.80;;;7.30;99.90;;;;;;5029004;28;20528;-81
2021/03/17 00:39:34;;;;;;;18.60;9.70;;;7.20;99.90;;;;;;5033964;28;20179;-81
2021/03/17 00:42:00;;;;;;;17.83;10.23;;;7.30;99.90;;;;;;5052514;28;20181;-81
2021/03/17 00:44:25;;;;;;;17.43;11.03;;;7.20;99.90;;;;;;5051268;28;20178;-81
2021/03/17 00:46:51;;;;;;;21.13;12.40;;;7.20;99.90;;;;;;5050122;28;20175;-81
2021/03/17 00:49:16;;;;;;;23.67;13.27;;;7.20;99.90;;;;;;5053583;28;20167;-81
2021/03/17 00:51:42;;;;;;;22.70;13.57;;;7.20;99.90;;;;;;5045625;28;20199;-81
2021/03/17 00:54:08;;;;;;;16.73;13.03;;;7.10;99.90;;;;;;5033459;28;20258;-81
2021/03/17 00:56:33;;;;;;;22.43;13.13;;;7.10;99.90;;;;;;5045198;28;20446;-81
2021/03/17 00:58:59;;;;;;;22.10;14.20;;;7.10;99.90;;;;;;5033383;28;20194;-81
2021/03/17 01:01:24;;;;;;;22.27;14.20;;;7.00;99.90;;;;;;5035147;28;20188;-81
2021/03/17 01:03:50;;;;;;;22.67;14.83;;;7.00;99.90;;;;;;5053591;28;20202;-81
2021/03/17 01:06:15;;;;;;;24.73;15.03;;;7.10;99.90;;;;;;5043554;28;20184;-81
2021/03/17 01:08:41;;;;;;;24.07;14.70;;;7.10;99.90;;;;;;5052943;28;20210;-81
2021/03/17 01:11:07;;;;;;;24.70;15.10;;;7.00;99.90;;;;;;5047646;28;20612;-81
2021/03/17 01:13:33;;;;;;;22.73;14.57;;;7.00;99.90;;;;;;5048366;28;20206;-81
2021/03/17 01:15:58;;;;;;;25.77;16.30;;;7.00;99.90;;;;;;5035578;28;20429;-81
2021/03/17 01:18:24;;;;;;;21.47;14.17;;;7.00;99.90;;;;;;5044667;28;20664;-81
2021/03/17 01:20:49;;;;;;;23.63;13.83;;;7.00;99.90;;;;;;5036973;28;20179;-81
2021/03/17 01:23:15;;;;;;;23.60;15.80;;;6.90;99.90;;;;;;5036709;28;20655;-81
2021/03/17 01:25:44;;;;;;;21.80;14.90;;;6.80;99.90;;;;;;5049141;28;20308;-81
2021/03/17 01:28:11;;;;;;;23.03;16.27;;;6.80;99.90;;;;;;5040490;28;20454;-81
2021/03/17 01:30:45;;;;;;;19.00;13.60;;;6.80;99.90;;;;;;5035781;28;20815;-81
2021/03/17 01:33:12;;;;;;;22.50;14.00;;;6.80;99.90;;;;;;5034905;28;20440;-81
2021/03/17 01:35:39;;;;;;;25.80;13.50;;;6.80;99.90;;;;;;5036028;28;20518;-81
2021/03/17 01:38:06;;;;;;;18.50;12.30;;;6.80;99.90;;;;;;5033181;28;20521;-81
2021/03/17 01:40:34;;;;;;;20.40;12.67;;;6.70;99.90;;;;;;5036606;28;20480;-81
2021/03/17 01:43:00;;;;;;;21.80;13.20;;;6.70;99.90;;;;;;5043707;28;20429;-81
2021/03/17 01:45:26;;;;;;;15.97;12.70;;;6.70;99.90;;;;;;5041817;28;21110;-81
2021/03/17 01:47:53;;;;;;;20.20;13.30;;;6.70;99.90;;;;;;5049455;28;20206;-81
2021/03/17 01:50:22;;;;;;;18.53;13.17;;;6.80;99.90;;;;;;5054291;28;20225;-81
2021/03/17 01:52:48;;;;;;;21.50;12.57;;;6.70;99.90;;;;;;5055451;28;20422;-81
2021/03/17 01:55:15;;;;;;;16.67;11.27;;;6.70;99.90;;;;;;5056413;28;20420;-81
2021/03/17 01:57:41;;;;;;;13.17;9.73;;;6.70;99.90;;;;;;5042749;28;20206;-81
2021/03/17 02:00:10;;;;;;;13.70;9.50;;;6.70;99.90;;;;;;5034976;28;20803;-81
2021/03/17 02:02:38;;;;;;;13.77;9.93;;;6.70;99.90;;;;;;5044514;28;20823;-82
2021/03/17 02:05:08;;;;;;;16.53;10.63;;;6.70;99.90;;;;;;5052679;28;20417;-81
2021/03/17 02:07:34;;;;;;;15.17;10.27;;;6.70;99.90;;;;;;5052185;28;20464;-81
2021/03/17 02:09:59;;;;;;;16.80;11.30;;;6.70;99.90;;;;;;5042841;28;20430;-81
2021/03/17 02:12:58;;;;;;;13.37;11.10;;;6.70;99.90;;;;;;5052431;28;20190;-81
2021/03/17 02:15:51;;;;;;;17.20;11.90;;;6.70;99.90;;;;;;5024833;28;20187;-81
2021/03/17 02:18:54;;;;;;;18.83;14.17;;;6.70;99.90;;;;;;5050636;28;20973;-81
2021/03/17 02:21:58;;;;;;;18.43;12.47;;;6.70;99.90;;;;;;5046387;28;20422;-81
2021/03/17 02:24:35;;;;;;;21.63;14.93;;;6.70;99.90;;;;;;5056724;28;20409;-81
2021/03/17 02:27:10;;;;;;;21.33;15.87;;;6.60;99.90;;;;;;5053907;28;20433;-81
2021/03/17 02:29:47;;;;;;;21.23;15.80;;;6.60;99.90;;;;;;5052755;28;20447;-81
2021/03/17 02:32:37;;;;;;;21.00;14.30;;;6.60;99.90;;;;;;5067143;28;20430;-81
2021/03/17 02:35:08;;;;;;;18.20;12.17;;;6.50;99.90;;;;;;5056124;28;20448;-81
2021/03/17 02:37:39;;;;;;;15.07;9.90;;;6.40;99.90;;;;;;5041892;28;20449;-81
2021/03/17 02:40:10;;;;;;;20.13;11.53;;;6.40;99.90;;;;;;5043056;28;20935;-81
2021/03/17 02:42:57;;;;;;;13.90;10.33;;;6.40;99.90;;;;;;5031860;28;20434;-81
2021/03/17 02:45:27;;;;;;;12.00;8.07;;;6.30;99.90;;;;;;5020552;28;20454;-81
2021/03/17 02:47:59;;;;;;;13.67;9.03;;;6.30;99.90;;;;;;5043394;28;20941;-81
2021/03/17 02:50:27;;;;;;;7.87;6.07;;;6.30;99.90;;;;;;5035113;28;20450;-81
2021/03/17 02:52:55;;;;;;;9.50;6.03;;;6.20;99.90;;;;;;5036066;28;20855;-81
2021/03/17 02:55:24;;;;;;;8.03;5.67;;;6.10;99.90;;;;;;5034079;28;20429;-80
2021/03/17 02:57:53;;;;;;;6.57;5.70;;;6.10;99.90;;;;;;5040962;28;20457;-81
2021/03/17 03:00:20;;;;;;;16.10;9.57;;;6.10;99.90;;;;;;5047342;28;20925;-81
2021/03/17 03:02:49;;;;;;;8.03;6.13;;;6.10;99.90;;;;;;5039199;28;20440;-81
2021/03/17 03:05:16;;;;;;;8.97;5.63;;;6.00;99.90;;;;;;5053049;28;20926;-81
2021/03/17 03:07:47;;;;;;;8.07;6.57;;;6.00;99.90;;;;;;5055450;28;20435;-81
2021/03/17 03:10:15;;;;;;;9.10;7.07;;;6.00;99.90;;;;;;5022536;28;20951;-81
2021/03/17 03:12:41;;;;;;;8.90;7.30;;;6.00;99.90;;;;;;5052873;28;20431;-81
2021/03/17 03:15:09;;;;;;;8.20;6.50;;;6.00;99.90;;;;;;5051977;28;20425;-80
2021/03/17 03:17:37;;;;;;;10.60;7.93;;;6.00;99.90;;;;;;5051918;28;20827;-81
2021/03/17 03:20:06;;;;;;;11.63;7.70;;;6.00;99.90;;;;;;5038323;28;20429;-80
2021/03/17 03:22:32;;;;;;;11.03;7.70;;;5.90;99.90;;;;;;5034133;28;20410;-80
2021/03/17 03:24:59;;;;;;;8.63;6.37;;;6.00;99.90;;;;;;5036116;28;20407;-80
2021/03/17 03:27:25;;;;;;;8.97;7.23;;;5.90;99.90;;;;;;5033521;28;20450;-81
2021/03/17 03:29:53;;;;;;;7.67;6.67;;;5.80;99.90;;;;;;5033575;28;20402;-81
2021/03/17 03:32:19;;;;;;;7.50;6.13;;;5.80;99.90;;;;;;5037953;28;20464;-80
2021/03/17 03:34:45;;;;;;;14.70;5.83;;;5.70;99.90;;;;;;5034510;28;20835;-80
2021/03/17 03:37:11;;;;;;;8.40;6.17;;;5.70;99.90;;;;;;5033077;28;20284;-81
2021/03/17 03:39:37;;;;;;;7.30;6.30;;;5.70;99.90;;;;;;5046371;28;20179;-80
2021/03/17 03:42:03;;;;;;;7.40;5.40;;;5.70;99.90;;;;;;5054676;28;20488;-80
2021/03/17 03:44:29;;;;;;;6.63;4.87;;;5.70;99.90;;;;;;5053936;28;20273;-80
2021/03/17 03:46:54;;;;;;;9.20;6.27;;;5.70;99.90;;;;;;5050321;28;20187;-80
2021/03/17 03:49:20;;;;;;;6.20;5.27;;;5.70;99.90;;;;;;5046310;28;20447;-81
2021/03/17 03:51:55;;;;;;;6.00;5.10;;;5.70;99.90;;;;;;5015894;28;20204;-80
2021/03/17 03:54:44;;;;;;;7.57;6.70;;;5.60;99.90;;;;;;5014054;28;20237;-80
2021/03/17 03:57:21;;;;;;;7.60;6.23;;;5.70;99.90;;;;;;5018223;28;20457;-80
2021/03/17 03:59:52;;;;;;;7.97;6.00;;;5.60;99.90;;;;;;5051815;28;20511;-81
2021/03/17 04:02:23;;;;;;;8.57;6.87;;;5.70;99.90;;;;;;5042534;28;21076;-80
2021/03/17 04:04:50;;;;;;;6.67;5.93;;;5.70;99.90;;;;;;5053530;28;20409;-80
2021/03/17 04:07:17;;;;;;;9.93;7.67;;;5.70;99.90;;;;;;5052807;28;20449;-81
2021/03/17 04:09:48;;;;;;;8.80;7.27;;;5.70;99.90;;;;;;5051143;28;20930;-80
2021/03/17 04:12:15;;;;;;;8.60;6.97;;;5.70;99.90;;;;;;5052566;28;20483;-80
2021/03/17 04:14:47;;;;;;;10.60;7.90;;;5.70;99.90;;;;;;5031496;28;20418;-81
2021/03/17 04:17:24;;;;;;;11.50;8.57;;;5.70;99.90;;;;;;5052376;28;20448;-80
2021/03/17 04:19:55;;;;;;;10.07;6.83;;;5.70;99.90;;;;;;5051041;28;20455;-80
2021/03/17 04:22:22;;;;;;;8.67;6.50;;;5.60;99.90;;;;;;5051231;28;20449;-80
2021/03/17 04:24:50;;;;;;;9.13;6.90;;;5.60;99.90;;;;;;5053342;28;20405;-80
2021/03/17 04:27:17;;;;;;;6.70;6.00;;;5.60;99.90;;;;;;5052325;28;20490;-80
2021/03/17 04:29:45;;;;;;;13.97;7.87;;;5.60;99.90;;;;;;5049724;28;20976;-80
2021/03/17 04:32:12;;;;;;;10.07;6.43;;;5.50;99.90;;;;;;5048916;28;20458;-80
2021/03/17 04:34:38;;;;;;;8.60;7.57;;;5.50;99.90;;;;;;5046575;28;20433;-80
2021/03/17 04:37:04;;;;;;;11.73;8.30;;;5.50;99.90;;;;;;5032179;28;20457;-80
2021/03/17 04:39:31;;;;;;;8.30;5.87;;;5.50;99.90;;;;;;5031448;28;20763;-80
2021/03/17 04:41:57;;;;;;;7.20;5.97;;;5.50;99.90;;;;;;5032499;28;20917;-75
2021/03/17 04:44:23;;;;;;;7.80;6.50;;;5.50;99.90;;;;;;5034452;28;20949;-76
2021/03/17 04:46:49;;;;;;;5.37;4.83;;;5.50;99.90;;;;;;5033977;28;20487;-78
2021/03/17 04:49:17;;;;;;;6.17;5.10;;;5.40;99.90;;;;;;5035789;28;20181;-78
2021/03/17 04:51:44;;;;;;;6.30;4.40;;;5.40;99.90;;;;;;5035674;28;20979;-76
2021/03/17 04:54:10;;;;;;;5.27;4.77;;;5.40;99.90;;;;;;5034923;28;20914;-76
2021/03/17 04:56:38;;;;;;;6.43;4.80;;;5.30;99.90;;;;;;5034603;28;20440;-77
2021/03/17 04:59:06;;;;;;;5.17;4.67;;;5.20;99.90;;;;;;5036928;28;20203;-78
2021/03/17 05:01:35;;;;;;;7.60;4.87;;;5.20;99.90;;;;;;5039838;28;20448;-77
2021/03/17 05:04:02;;;;;;;6.40;5.03;;;5.20;99.90;;;;;;5039973;28;20410;-78
2021/03/17 05:06:30;;;;;;;7.77;5.70;;;5.20;99.90;;;;;;5039749;28;20447;-77
2021/03/17 05:08:57;;;;;;;6.87;5.40;;;5.20;99.90;;;;;;5035687;28;21021;-76
2021/03/17 05:11:23;;;;;;;6.20;5.13;;;5.20;99.90;;;;;;5035210;28;20597;-76
2021/03/17 05:13:48;;;;;;;7.80;5.50;;;5.30;99.90;;;;;;5029183;28;20518;-76
2021/03/17 05:16:15;;;;;;;7.03;6.30;;;5.30;99.90;;;;;;5015751;28;20164;-76
2021/03/17 05:18:42;;;;;;;8.23;5.90;;;5.30;99.90;;;;;;5019454;28;20195;-78
2021/03/17 05:21:10;;;;;;;7.23;6.00;;;5.30;99.90;;;;;;5019736;28;20414;-78
2021/03/17 05:23:39;;;;;;;6.07;5.47;;;5.40;99.90;;;;;;5020367;28;20418;-77
2021/03/17 05:26:05;;;;;;;8.00;6.80;;;5.40;99.90;;;;;;5020185;28;20963;-78
2021/03/17 05:28:33;;;;;;;7.13;6.47;;;5.40;99.90;;;;;;5019326;28;20522;-78
2021/03/17 05:30:59;;;;;;;6.13;5.50;;;5.40;99.90;;;;;;5018774;28;21096;-78
2021/03/17 05:33:27;;;;;;;7.00;5.93;;;5.40;99.90;;;;;;5018274;28;20419;-78
2021/03/17 05:35:53;;;;;;;8.07;7.23;;;5.40;99.90;;;;;;5042030;28;20926;-79
2021/03/17 05:38:19;;;;;;;9.20;6.87;;;5.50;99.90;;;;;;5033673;28;20889;-79
2021/03/17 05:40:45;;;;;;;8.93;7.67;;;5.50;99.90;;;;;;5045603;28;20473;-79
2021/03/17 05:43:10;;;;;;;8.60;7.80;;;5.50;99.90;;;;;;5056950;28;20656;-77
2021/03/17 05:45:38;;;;;;;10.20;8.00;;;5.50;99.90;;;;;;5049632;28;20187;-79
2021/03/17 05:48:05;;;;;;;12.03;8.70;;;5.50;99.90;;;;;;5054450;28;20282;-79
2021/03/17 05:50:31;;;;;;;9.40;8.20;;;5.50;99.90;;;;;;5057425;28;20542;-79
2021/03/17 05:52:57;;;;;;;9.20;8.13;;;5.50;99.90;;;;;;5055393;28;20487;-78
2021/03/17 05:55:23;;;;;;;9.30;8.40;;;5.50;99.90;;;;;;5045705;28;20491;-78
2021/03/17 05:57:49;;;;;;;9.83;8.70;;;5.50;99.90;;;;;;5057709;28;20453;-77
2021/03/17 06:00:21;;;;;;;8.73;7.93;;;5.40;99.90;;;;;;5058735;28;20198;-77
2021/03/17 06:02:50;;;;;;;9.33;7.67;;;5.50;99.90;;;;;;5056777;28;20432;-79
2021/03/17 06:05:19;;;;;;;7.67;6.90;;;5.50;99.90;;;;;;5058706;28;20424;-79
2021/03/17 06:08:03;;;;;;;9.00;6.63;;;5.50;99.90;;;;;;5057878;28;20450;-79
2021/03/17 06:10:30;;;;;;;9.03;7.43;;;5.40;99.90;;;;;;5051432;28;20498;-76
2021/03/17 06:13:00;;;;;;;7.93;6.80;;;5.40;99.90;;;;;;5052024;28;20520;-75
2021/03/17 06:15:28;;;;;;;8.87;7.33;;;5.40;99.90;;;;;;5034848;28;20454;-76
2021/03/17 06:18:05;;;;;;;12.00;7.93;;;5.30;99.90;;;;;;5037312;28;20847;-76
2021/03/17 06:20:31;;;;;;;8.97;8.00;;;5.40;99.90;;;;;;5055183;28;20434;-78
2021/03/17 06:22:56;;;;;;;9.70;6.90;;;5.30;99.90;;;;;;5053176;28;20434;-78
2021/03/17 06:25:23;;;;;;;9.20;7.40;;;5.30;99.90;;;;;;5043981;28;20181;-78
2021/03/17 06:27:50;;;;;;;8.97;7.57;;;5.30;99.90;;;;;;5057832;28;20187;-78
2021/03/17 06:30:16;;;;;;;12.30;9.10;;;5.40;99.90;;;;;;5056239;28;20453;-78
2021/03/17 06:32:43;;;;;;;8.97;7.13;;;5.40;99.90;;;;;;5058226;28;20406;-79
2021/03/17 06:35:15;;;;;;;10.17;8.80;;;5.40;99.90;;;;;;5056696;28;20197;-79
2021/03/17 06:37:41;;;;;;;11.23;8.30;;;5.40;99.90;;;;;;5052823;28;20445;-76
2021/03/17 06:40:33;;;;;;;10.57;9.47;;;5.50;99.90;;;;;;5042365;28;20426;-78
2021/03/17 06:43:17;;;;;;;9.70;7.73;;;5.50;99.90;;;;;;5036988;28;20168;-76
2021/03/17 06:45:49;;;;;;;10.07;8.03;;;5.50;99.90;;;;;;5033335;28;20426;-75
2021/03/17 06:48:25;;;;;;;8.93;8.00;;;5.50;99.90;;;;;;5036446;28;20785;-79
2021/03/17 06:51:15;;;;;;;9.23;7.73;;;5.50;99.90;;;;;;5042676;28;20492;-76
2021/03/17 06:53:52;;;;;;;10.60;8.03;;;5.60;99.90;;;;;;5050088;28;20950;-76
2021/03/17 06:56:23;;;;;;;9.13;6.97;;;5.60;99.90;;;;;;5052079;28;20436;-76
2021/03/17 06:58:51;;;;;;;10.80;8.50;;;5.70;99.90;;;;;;5053367;28;20456;-76
2021/03/17 07:01:23;;;;;;;9.03;7.67;;;5.70;99.90;;;;;;5048961;28;20468;-76
2021/03/17 07:03:56;;;;;;;9.67;8.00;;;5.70;99.90;;;;;;5052944;28;20484;-76
2021/03/17 07:06:22;;;;;;;8.77;7.33;;;5.80;99.90;;;;;;5049905;28;20433;-76
2021/03/17 07:08:48;;;;;;;8.87;7.20;;;5.80;99.90;;;;;;5053226;28;21036;-75
2021/03/17 07:11:24;;;;;;;10.13;8.27;;;5.80;99.90;;;;;;5035070;28;20455;-78
2021/03/17 07:13:54;;;;;;;6.70;6.00;;;5.80;99.90;;;;;;5017880;28;20412;-79
2021/03/17 07:16:37;;;;;;;10.63;7.73;;;5.90;99.90;;;;;;5050682;28;20439;-79
2021/03/17 07:19:04;;;;;;;8.63;7.53;;;6.00;99.90;;;;;;5050963;28;20555;-76
2021/03/17 07:21:35;;;;;;;7.67;6.57;;;6.00;99.90;;;;;;5050120;28;20994;-76
2021/03/17 07:24:01;;;;;;;8.90;6.20;;;6.00;99.90;;;;;;5052997;28;20390;-76
2021/03/17 07:26:29;;;;;;;8.70;7.10;;;6.00;99.90;;;;;;5052952;28;20439;-76
2021/03/17 07:29:05;;;;;;;7.30;6.47;;;6.00;99.90;;;;;;5052789;28;20444;-76
2021/03/17 07:31:37;;;;;;;6.67;5.60;;;6.10;99.90;;;;;;5029023;28;20450;-75
2021/03/17 07:34:11;;;;;;;8.57;7.33;;;6.20;99.90;;;;;;5032808;28;20793;-78
2021/03/17 07:36:41;;;;;;;8.67;7.60;;;6.30;99.90;;;;;;5036847;28;20412;-76
2021/03/17 07:39:10;;;;;;;10.40;8.40;;;6.20;99.90;;;;;;5035183;28;21012;-79
2021/03/17 07:41:38;;;;;;;10.47;8.27;;;6.30;99.90;;;;;;5041719;28;20431;-79
2021/03/17 07:44:06;;;;;;;8.70;7.30;;;6.30;99.90;;;;;;5051401;28;20461;-78
2021/03/17 07:46:33;;;;;;;12.10;7.83;;;6.40;99.90;;;;;;5034912;28;20418;-78
2021/03/17 07:48:59;;;;;;;10.27;7.23;;;6.40;99.90;;;;;;5039683;28;20449;-79
2021/03/17 07:51:26;;;;;;;11.80;7.73;;;6.50;99.90;;;;;;5055419;28;20459;-79
2021/03/17 07:53:53;;;;;;;10.70;7.33;;;6.50;99.90;;;;;;5055128;28;20443;-77
2021/03/17 07:56:21;;;;;;;8.70;7.57;;;6.60;99.90;;;;;;5029640;28;20481;-75
2021/03/17 07:58:50;;;;;;;9.37;7.70;;;6.60;99.90;;;;;;5020767;28;20455;-76
2021/03/17 08:01:16;;;;;;;7.17;6.43;;;6.70;99.90;;;;;;5030815;28;20418;-75
2021/03/17 08:03:45;;;;;;;6.27;5.63;;;6.70;99.90;;;;;;5032516;28;20430;-76
2021/03/17 08:06:11;;;;;;;5.90;5.30;;;6.70;99.90;;;;;;5033172;28;20939;-78
2021/03/17 08:08:38;;;;;;;6.53;5.50;;;6.70;99.90;;;;;;5035399;28;20525;-78
2021/03/17 08:11:03;;;;;;;6.53;5.23;;;6.70;99.90;;;;;;5035682;28;20461;-78
2021/03/17 08:13:30;;;;;;;8.57;5.70;;;6.70;99.90;;;;;;5032236;28;20461;-77
2021/03/17 08:15:56;;;;;;;6.00;5.50;;;6.70;99.90;;;;;;5031843;28;20628;-77
2021/03/17 08:18:31;;;;;;;7.00;6.07;;;6.70;99.90;;;;;;5031838;28;20441;-77
2021/03/17 08:20:57;;;;;;;10.07;8.03;;;6.60;99.90;;;;;;5022875;28;20418;-76
2021/03/17 08:23:47;;;;;;;8.43;7.37;;;6.50;99.90;;;;;;5031895;28;20433;-77
2021/03/17 08:26:20;;;;;;;9.17;7.83;;;6.50;99.90;;;;;;5031467;28;20417;-76
2021/03/17 08:28:48;;;;;;;9.60;8.60;;;6.60;99.90;;;;;;5031857;28;20826;-76
2021/03/17 08:31:33;;;;;;;9.03;7.97;;;6.70;99.90;;;;;;5030987;28;20458;-76
2021/03/17 08:33:59;;;;;;;8.30;7.43;;;6.70;99.90;;;;;;5031086;28;20962;-76
2021/03/17 08:36:41;;;;;;;9.60;7.57;;;6.70;99.90;;;;;;5030529;28;20501;-77
2021/03/17 08:39:07;;;;;;;10.43;7.90;;;6.70;99.90;;;;;;5035245;28;20194;-77
2021/03/17 08:41:38;;;;;;;10.10;8.23;;;6.80;99.90;;;;;;5034761;28;22052;-77
2021/03/17 08:44:15;;;;;;;13.57;8.27;;;7.10;99.90;;;;;;5036245;28;20576;-77
2021/03/17 08:46:41;;;;;;;11.13;8.60;;;7.30;99.90;;;;;;5036441;28;20451;-78
2021/03/17 08:49:09;;;;;;;10.60;6.97;;;7.30;99.90;;;;;;5035533;28;20450;-76
2021/03/17 08:51:54;;;;;;;7.13;6.43;;;7.50;99.90;;;;;;5033891;28;20551;-76
2021/03/17 08:54:32;;;;;;;8.27;5.00;;;8.00;99.90;;;;;;5026199;28;20435;-77
2021/03/17 08:57:08;;;;;;;5.20;4.47;;;8.30;99.90;;;;;;5033783;28;20428;-77
2021/03/17 09:00:00;;;;;;;8.53;4.40;;;8.90;99.90;;;;;;5033901;28;20957;-77
2021/03/17 09:02:25;;;;;;;5.30;4.47;;;9.70;99.90;;;;;;5033364;28;20410;-77
2021/03/17 09:04:57;;;;;;;4.70;4.30;;;10.60;99.90;;;;;;5034032;28;20417;-77
2021/03/17 09:07:32;;;;;;;6.20;5.17;;;11.20;99.90;;;;;;5035203;28;20336;-77
2021/03/17 09:09:59;;;;;;;8.17;5.33;;;11.90;99.90;;;;;;5031695;28;21020;-77
2021/03/17 09:12:25;;;;;;;7.20;4.67;;;11.90;99.90;;;;;;5029510;28;20437;-77
2021/03/17 09:14:51;;;;;;;6.30;5.37;;;12.30;99.90;;;;;;5034551;28;20840;-76
2021/03/17 09:17:27;;;;;;;8.67;6.47;;;12.40;99.90;;;;;;5036087;28;20805;-76
2021/03/17 09:20:09;;;;;;;6.17;5.07;;;12.30;99.90;;;;;;5040244;28;20427;-76
2021/03/17 09:22:45;;;;;;;6.57;5.50;;;12.10;99.90;;;;;;5033266;28;20558;-77
2021/03/17 09:25:20;;;;;;;8.60;6.00;;;11.60;99.90;;;;;;5035182;28;20438;-76
2021/03/17 09:28:23;;;;;;;9.77;6.13;;;10.70;99.90;;;;;;5036871;28;20938;-77
2021/03/17 09:30:53;;;;;;;6.50;5.63;;;11.10;99.90;;;;;;5026445;28;20507;-74
2021/03/17 09:33:22;;;;;;;8.37;6.83;;;11.60;99.90;;;;;;5034482;28;20845;-76
2021/03/17 09:35:54;;;;;;;9.83;5.70;;;11.70;99.90;;;;;;5034960;28;20413;-75
2021/03/17 09:38:23;;;;;;;7.00;5.77;;;11.40;99.90;;;;;;5027179;28;20484;-76
2021/03/17 09:40:56;;;;;;;7.77;6.93;;;11.30;99.90;;;;;;5034770;28;20783;-76
2021/03/17 09:43:35;;;;;;;6.83;5.67;;;11.20;99.90;;;;;;5028423;28;20440;-76
2021/03/17 09:46:17;;;;;;;8.97;5.43;;;10.90;99.90;;;;;;5034638;28;20411;-76
2021/03/17 09:48:43;;;;;;;7.80;5.10;;;10.90;99.90;;;;;;5034731;28;20440;-76
2021/03/17 09:51:15;;;;;;;6.03;5.43;;;10.60;99.90;;;;;;5034335;28;20457;-76
2021/03/17 09:53:43;;;;;;;7.83;5.40;;;10.10;99.90;;;;;;5027005;28;20764;-76
2021/03/17 09:56:08;;;;;;;12.73;4.47;;;10.00;99.90;;;;;;5028859;28;20434;-76
2021/03/17 09:58:34;;;;;;;7.00;5.00;;;10.00;99.90;;;;;;5034280;28;20446;-76
2021/03/17 10:01:13;;;;;;;5.60;5.03;;;9.80;99.90;;;;;;5034365;28;20176;-76
2021/03/17 10:03:46;;;;;;;5.77;4.60;;;10.20;99.90;;;;;;5034478;28;20192;-76
2021/03/17 10:06:12;;;;;;;4.60;4.10;;;10.60;99.90;;;;;;5034717;28;20414;-77
2021/03/17 10:08:37;;;;;;;4.87;4.40;;;10.90;99.90;;;;;;5033271;28;20450;-76
2021/03/17 10:11:03;;;;;;;8.07;4.50;;;11.10;99.90;;;;;;5033232;28;20828;-76
2021/03/17 10:13:35;;;;;;;15.20;3.70;;;11.10;99.90;;;;;;5034469;28;20175;-76
2021/03/17 10:16:01;;;;;;;6.10;3.93;;;10.70;99.90;;;;;;5034638;28;20457;-75
2021/03/17 10:18:28;;;;;;;7.00;4.70;;;10.90;99.90;;;;;;5034639;28;20507;-77
2021/03/17 10:20:55;;;;;;;5.00;4.50;;;10.80;99.90;;;;;;5033766;28;20167;-76
2021/03/17 10:23:22;;;;;;;4.97;4.07;;;10.60;99.90;;;;;;5034240;28;20980;-76
2021/03/17 10:25:48;;;;;;;5.90;3.20;;;10.20;99.90;;;;;;5034371;28;20780;-76
2021/03/17 10:28:15;;;;;;;2.10;2.00;;;9.60;99.90;;;;;;5032756;28;20431;-76
2021/03/17 10:30:48;;;;;;;3.30;1.97;;;9.10;99.90;;;;;;5033560;28;20473;-76
2021/03/17 10:33:20;;;;;;;2.43;2.23;;;8.70;99.90;;;;;;5032690;28;20427;-77
2021/03/17 10:35:46;;;;;;;2.83;2.53;;;8.50;99.90;;;;;;5033826;28;20422;-76
2021/03/17 10:38:12;;;;;;;6.70;2.80;;;8.50;99.90;;;;;;5032011;28;20461;-76
2021/03/17 10:40:38;;;;;;;4.20;2.73;;;8.40;99.90;;;;;;5032462;28;20450;-76
2021/03/17 10:43:14;;;;;;;3.70;2.60;;;8.30;99.90;;;;;;5032794;28;20178;-77
2021/03/17 10:45:48;;;;;;;4.70;2.90;;;8.30;99.90;;;;;;5028413;28;20457;-76
2021/03/17 10:48:15;;;;;;;6.30;3.10;;;8.30;99.90;;;;;;5032177;28;20529;-76
2021/03/17 10:50:42;;;;;;;5.77;3.60;;;8.50;99.90;;;;;;5027613;28;20803;-76
2021/03/17 10:53:36;;;;;;;4.27;3.20;;;8.70;99.90;;;;;;5023403;28;20944;-76
2021/03/17 10:56:02;;;;;;;5.70;2.30;;;8.80;99.90;;;;;;5030350;28;20442;-75
2021/03/17 10:58:29;;;;;;;7.10;3.17;;;9.00;99.90;;;;;;5027579;28;20446;-76
2021/03/17 11:00:57;;;;;;;3.97;2.33;;;9.10;99.90;;;;;;5031332;28;20176;-77
2021/03/17 11:03:35;;;;;;;3.20;2.00;;;9.00;99.90;;;;;;5025281;28;20429;-76
2021/03/17 11:06:15;;;;;;;4.00;2.23;;;8.80;99.90;;;;;;5032142;28;20434;-76
2021/03/17 11:08:42;;;;;;;2.57;2.37;;;8.70;99.90;;;;;;5033060;28;20450;-76
2021/03/17 11:11:12;;;;;;;4.80;3.10;;;8.80;99.90;;;;;;5032531;28;20481;-76
2021/03/17 11:13:42;;;;;;;3.23;1.90;;;9.10;99.90;;;;;;5029475;28;20426;-76
2021/03/17 11:16:20;;;;;;;4.10;2.27;;;9.10;99.90;;;;;;5032682;28;21010;-76
2021/03/17 11:18:45;;;;;;;10.53;2.60;;;9.00;99.90;;;;;;5032610;28;20930;-76
2021/03/17 11:21:29;;;;;;;2.97;2.00;;;9.10;99.90;;;;;;5032408;28;20509;-76
2021/03/17 11:23:58;;;;;;;4.53;2.53;;;9.10;99.90;;;;;;5026977;28;20186;-76
2021/03/17 11:26:28;;;;;;;4.40;2.70;;;9.20;99.90;;;;;;5032227;28;20422;-76
2021/03/17 11:28:55;;;;;;;2.40;2.20;;;9.10;99.90;;;;;;5032713;28;20444;-76
2021/03/17 11:31:25;;;;;;;4.00;2.10;;;9.00;99.90;;;;;;5032661;28;20530;-76
2021/03/17 11:33:51;;;;;;;3.50;2.63;;;9.10;99.90;;;;;;5027113;28;20847;-75
2021/03/17 11:36:17;;;;;;;4.17;2.50;;;9.10;99.90;;;;;;5032586;28;20406;-76
2021/03/17 11:38:42;;;;;;;2.57;2.13;;;9.20;99.90;;;;;;5032543;28;20610;-76
2021/03/17 11:41:08;;;;;;;5.67;2.70;;;9.30;99.90;;;;;;5031850;28;20410;-76
2021/03/17 11:43:34;;;;;;;3.10;2.77;;;9.10;99.90;;;;;;5031154;28;20230;-76
2021/03/17 11:46:01;;;;;;;2.93;2.73;;;9.30;99.90;;;;;;5025986;28;20544;-76
2021/03/17 11:48:28;;;;;;;4.30;1.60;;;9.70;99.90;;;;;;5032719;28;20191;-76
2021/03/17 11:50:56;;;;;;;2.77;1.87;;;9.60;99.90;;;;;;5030387;28;20449;-76
2021/03/17 11:53:22;;;;;;;7.40;3.57;;;9.40;99.90;;;;;;5032354;28;20461;-75
2021/03/17 11:55:49;;;;;;;8.20;5.30;;;9.30;99.90;;;;;;5032398;28;20487;-75
2021/03/17 11:58:15;;;;;;;71.57;60.30;;;9.80;99.90;;;;;;5032131;28;20438;-76
2021/03/17 12:00:41;;;;;;;3.20;2.90;;;10.20;99.90;;;;;;5031195;28;20421;-76
2021/03/17 12:03:07;;;;;;;2.67;1.67;;;11.10;99.90;;;;;;5024130;28;20421;-77
2021/03/17 12:05:34;;;;;;;2.60;2.00;;;11.70;99.90;;;;;;5031932;28;20511;-76
2021/03/17 12:08:00;;;;;;;3.00;1.93;;;11.70;99.90;;;;;;5031509;28;20521;-75
2021/03/17 12:10:27;;;;;;;3.60;2.20;;;11.30;99.90;;;;;;5031782;28;20454;-76
2021/03/17 12:12:53;;;;;;;2.10;1.80;;;11.20;99.90;;;;;;5032126;28;20423;-76
2021/03/17 12:15:20;;;;;;;4.37;2.27;;;10.90;99.90;;;;;;5032114;28;20430;-76
2021/03/17 12:17:47;;;;;;;6.63;2.17;;;10.80;99.90;;;;;;5030976;28;20253;-76
2021/03/17 12:20:14;;;;;;;2.93;1.90;;;10.40;99.90;;;;;;5031472;28;20448;-76
2021/03/17 12:22:39;;;;;;;3.97;2.47;;;10.40;99.90;;;;;;5030336;28;20504;-76
2021/03/17 12:25:07;;;;;;;3.37;2.40;;;10.00;99.90;;;;;;5031575;28;20498;-76
2021/03/17 12:27:33;;;;;;;4.03;2.30;;;9.80;99.90;;;;;;5032102;28;20220;-75
2021/03/17 12:29:59;;;;;;;3.40;2.47;;;9.70;99.90;;;;;;5031601;28;20425;-76
2021/03/17 12:32:25;;;;;;;3.00;2.10;;;9.30;99.90;;;;;;5031796;28;20458;-76
2021/03/17 12:34:50;;;;;;;2.90;2.57;;;9.20;99.90;;;;;;5021120;28;20254;-76
2021/03/17 12:37:16;;;;;;;3.57;2.43;;;9.10;99.90;;;;;;5029384;28;20955;-76
2021/03/17 12:39:42;;;;;;;4.10;2.87;;;8.70;99.90;;;;;;5031249;28;20226;-76
2021/03/17 12:42:09;;;;;;;4.40;2.40;;;8.40;99.90;;;;;;5024577;28;20541;-76
2021/03/17 12:44:36;;;;;;;6.53;2.17;;;8.30;99.90;;;;;;5031425;28;20442;-76
2021/03/17 12:47:02;;;;;;;2.93;2.13;;;8.20;99.90;;;;;;5034877;28;20509;-76
2021/03/17 12:49:28;;;;;;;6.83;2.13;;;8.20;99.90;;;;;;5032027;28;20426;-76
2021/03/17 12:51:55;;;;;;;4.73;1.97;;;8.30;99.90;;;;;;5031253;28;20479;-73
2021/03/17 12:54:20;;;;;;;2.30;2.10;;;8.40;99.90;;;;;;5039149;28;20517;-73
2021/03/17 12:56:46;;;;;;;4.30;2.07;;;8.60;99.90;;;;;;5050961;28;20511;-73
2021/03/17 12:59:12;;;;;;;4.30;1.70;;;9.10;99.90;;;;;;5039626;28;20168;-73
2021/03/17 13:01:37;;;;;;;3.60;1.60;;;9.60;99.90;;;;;;5045144;28;20651;-73